createdAt,value
2022-10-30T00:00:01.612Z,19.35
2022-10-30T00:08:41.782Z,19.26
2022-10-30T00:11:42.817Z,19.19
2022-10-30T00:14:20.219Z,19.29
2022-10-30T00:17:04.660Z,19.26
2022-10-30T00:19:53.435Z,19.20
2022-10-30T00:22:22.511Z,19.08
2022-10-30T00:24:50.460Z,19.14
2022-10-30T00:27:24.823Z,19.04
2022-10-30T00:29:54.317Z,19.11
2022-10-30T00:34:41.109Z,19.04
2022-10-30T00:38:14.088Z,19.04
2022-10-30T00:41:20.066Z,19.02
2022-10-30T00:43:54.404Z,18.99
2022-10-30T00:46:35.699Z,18.93
2022-10-30T00:49:18.847Z,18.79
2022-10-30T00:58:43.542Z,18.82
2022-10-30T01:01:18.464Z,18.90
2022-10-30T01:04:08.072Z,18.78
2022-10-30T01:06:55.071Z,18.67
2022-10-30T01:12:41.917Z,18.86
2022-10-30T01:19:14.700Z,18.99
2022-10-30T01:22:35.183Z,18.97
2022-10-30T01:25:37.488Z,18.96
2022-10-30T01:28:26.666Z,18.91
2022-10-30T01:31:04.420Z,18.93
2022-10-30T01:33:37.972Z,18.91
2022-10-30T01:36:11.318Z,18.87
2022-10-30T01:39:02.944Z,18.68
2022-10-30T01:41:59.529Z,18.77
2022-10-30T01:45:04.945Z,18.63
2022-10-30T01:48:02.226Z,18.77
2022-10-30T01:51:06.481Z,18.68
2022-10-30T01:54:23.705Z,18.63
2022-10-30T01:57:03.316Z,18.74
2022-10-30T01:59:50.605Z,18.74
2022-10-30T02:02:41.177Z,18.63
2022-10-30T02:05:34.786Z,18.62
2022-10-30T02:08:17.327Z,18.73
2022-10-30T02:14:26.033Z,18.74
2022-10-30T02:16:54.452Z,18.84
2022-10-30T02:22:25.873Z,18.84
2022-10-30T02:25:16.050Z,18.70
2022-10-30T02:28:00.163Z,18.79
2022-10-30T02:30:44.224Z,18.66
2022-10-30T02:33:31.211Z,18.75
2022-10-30T02:36:01.416Z,18.75
2022-10-30T02:38:46.887Z,18.81
2022-10-30T02:41:42.684Z,18.78
2022-10-30T02:44:35.053Z,18.63
2022-10-30T02:47:09.569Z,18.70
2022-10-30T02:52:58.451Z,18.70
2022-10-30T02:55:30.611Z,18.77
2022-10-30T02:58:08.005Z,18.83
2022-10-30T03:00:38.205Z,18.78
2022-10-30T03:03:10.842Z,18.84
2022-10-30T03:06:00.573Z,18.82
2022-10-30T03:08:37.559Z,18.78
2022-10-30T03:15:04.675Z,18.73
2022-10-30T03:17:34.362Z,18.91
2022-10-30T03:20:24.767Z,18.84
2022-10-30T03:23:12.320Z,18.91
2022-10-30T03:25:51.003Z,18.95
2022-10-30T03:28:53.000Z,18.92
2022-10-30T03:31:38.928Z,19.00
2022-10-30T03:35:13.082Z,19.02
2022-10-30T03:37:55.139Z,18.95
2022-10-30T03:41:02.060Z,19.08
2022-10-30T03:44:16.486Z,18.97
2022-10-30T03:50:14.399Z,19.04
2022-10-30T03:53:02.499Z,19.10
2022-10-30T03:55:53.385Z,19.22
2022-10-30T04:02:09.613Z,19.19
2022-10-30T04:04:37.767Z,19.18
2022-10-30T04:08:28.408Z,19.30
2022-10-30T04:13:50.918Z,19.16
2022-10-30T04:16:34.325Z,19.19
2022-10-30T04:22:17.072Z,19.04
2022-10-30T04:24:51.135Z,19.11
2022-10-30T04:27:28.170Z,18.97
2022-10-30T04:30:01.053Z,19.06
2022-10-30T04:32:38.128Z,19.01
2022-10-30T04:35:17.085Z,19.02
2022-10-30T04:37:45.437Z,18.85
2022-10-30T04:40:43.405Z,19.07
2022-10-30T04:43:12.926Z,19.09
2022-10-30T04:45:43.081Z,19.09
2022-10-30T04:48:12.876Z,19.10
2022-10-30T04:50:43.863Z,19.13
2022-10-30T04:53:18.493Z,19.10
2022-10-30T04:55:56.154Z,19.13
2022-10-30T04:58:33.131Z,19.11
2022-10-30T05:01:06.168Z,19.09
2022-10-30T05:03:35.252Z,19.08
2022-10-30T05:06:18.262Z,19.10
2022-10-30T05:08:49.529Z,19.12
2022-10-30T05:12:16.765Z,19.02
2022-10-30T05:15:13.052Z,19.19
2022-10-30T05:17:54.010Z,19.07
2022-10-30T05:21:02.234Z,19.24
2022-10-30T05:23:37.172Z,19.34
2022-10-30T05:26:31.947Z,19.34
2022-10-30T05:29:06.175Z,19.26
2022-10-30T05:31:37.201Z,19.35
2022-10-30T05:34:23.286Z,19.32
2022-10-30T05:36:54.455Z,19.25
2022-10-30T05:39:28.558Z,19.36
2022-10-30T05:41:58.288Z,19.36
2022-10-30T05:44:59.099Z,19.38
2022-10-30T05:47:27.007Z,19.41
2022-10-30T05:50:06.847Z,19.41
2022-10-30T05:52:44.992Z,19.23
2022-10-30T05:55:42.735Z,19.40
2022-10-30T06:01:29.438Z,19.37
2022-10-30T06:04:03.900Z,19.32
2022-10-30T06:09:22.716Z,19.38
2022-10-30T06:12:41.278Z,19.18
2022-10-30T06:15:50.027Z,19.35
2022-10-30T06:18:22.643Z,19.23
2022-10-30T06:21:01.804Z,19.38
2022-10-30T06:24:06.645Z,19.34
2022-10-30T06:26:53.057Z,19.41
2022-10-30T06:32:18.113Z,19.32
2022-10-30T06:34:54.119Z,19.37
2022-10-30T06:37:42.793Z,19.35
2022-10-30T06:40:12.986Z,19.36
2022-10-30T06:42:47.943Z,19.39
2022-10-30T06:45:58.681Z,19.41
2022-10-30T06:51:58.445Z,19.37
2022-10-30T06:55:04.769Z,19.29
2022-10-30T06:57:55.488Z,19.39
2022-10-30T07:00:42.139Z,19.23
2022-10-30T07:03:30.996Z,19.43
2022-10-30T07:05:59.012Z,19.46
2022-10-30T07:08:42.979Z,19.43
2022-10-30T07:11:14.162Z,19.30
2022-10-30T07:13:58.659Z,19.47
2022-10-30T07:16:39.765Z,19.46
2022-10-30T07:19:09.443Z,19.46
2022-10-30T07:21:37.516Z,19.50
2022-10-30T07:24:07.942Z,19.47
2022-10-30T07:26:46.239Z,19.44
2022-10-30T07:29:44.878Z,19.41
2022-10-30T07:32:45.303Z,19.33
2022-10-30T07:35:43.775Z,19.24
2022-10-30T07:38:32.341Z,19.23
2022-10-30T07:41:26.295Z,19.26
2022-10-30T07:44:16.585Z,19.29
2022-10-30T07:47:19.984Z,19.28
2022-10-30T07:54:11.950Z,19.21
2022-10-30T07:56:39.891Z,19.35
2022-10-30T07:59:27.236Z,19.45
2022-10-30T08:02:33.417Z,19.54
2022-10-30T08:05:42.223Z,19.44
2022-10-30T08:08:13.810Z,19.38
2022-10-30T08:15:34.796Z,19.43
2022-10-30T08:18:25.726Z,19.22
2022-10-30T08:21:01.191Z,19.05
2022-10-30T08:23:42.466Z,18.98
2022-10-30T08:26:17.310Z,18.94
2022-10-30T08:28:53.451Z,18.90
2022-10-30T08:31:23.815Z,18.72
2022-10-30T08:34:10.820Z,18.84
2022-10-30T08:36:55.271Z,18.80
2022-10-30T08:39:26.655Z,18.82
2022-10-30T08:42:07.286Z,18.72
2022-10-30T08:44:41.832Z,18.71
2022-10-30T08:47:46.237Z,18.61
2022-10-30T08:50:19.564Z,18.50
2022-10-30T08:52:54.739Z,18.42
2022-10-30T08:55:23.639Z,18.49
2022-10-30T08:58:21.938Z,18.32
2022-10-30T09:00:51.343Z,18.31
2022-10-30T09:03:21.095Z,18.21
2022-10-30T09:06:09.545Z,18.02
2022-10-30T09:09:00.736Z,17.96
2022-10-30T09:11:45.958Z,17.87
2022-10-30T09:14:14.623Z,17.69
2022-10-30T09:16:42.965Z,17.56
2022-10-30T09:19:18.700Z,17.54
2022-10-30T09:21:47.871Z,17.52
2022-10-30T09:24:15.956Z,17.49
2022-10-30T09:26:43.975Z,17.51
2022-10-30T09:29:18.127Z,17.48
2022-10-30T09:32:09.844Z,17.57
2022-10-30T09:35:14.059Z,17.73
2022-10-30T09:37:45.072Z,17.67
2022-10-30T09:40:23.808Z,17.73
2022-10-30T09:42:52.765Z,17.64
2022-10-30T09:45:50.279Z,17.54
2022-10-30T09:48:39.645Z,17.72
2022-10-30T09:51:42.847Z,17.71
2022-10-30T09:54:21.481Z,17.66
2022-10-30T09:57:02.355Z,17.49
2022-10-30T09:59:41.526Z,17.22
2022-10-30T10:02:22.799Z,17.05
2022-10-30T10:04:53.816Z,16.90
2022-10-30T10:07:43.863Z,16.70
2022-10-30T10:10:42.007Z,16.72
2022-10-30T10:13:27.674Z,16.70
2022-10-30T10:15:59.493Z,16.65
2022-10-30T10:18:34.986Z,16.70
2022-10-30T10:21:12.442Z,16.66
2022-10-30T10:23:47.236Z,16.65
2022-10-30T10:26:29.675Z,16.67
2022-10-30T10:29:16.393Z,16.62
2022-10-30T10:31:47.649Z,16.67
2022-10-30T10:34:26.161Z,16.40
2022-10-30T10:37:00.232Z,16.44
2022-10-30T10:40:02.891Z,16.62
2022-10-30T10:42:41.322Z,16.61
2022-10-30T10:45:21.069Z,16.73
2022-10-30T10:48:18.061Z,16.73
2022-10-30T10:51:02.862Z,16.68
2022-10-30T10:53:34.993Z,16.71
2022-10-30T10:56:06.735Z,16.74
2022-10-30T10:58:45.964Z,16.82
2022-10-30T11:01:21.663Z,16.88
2022-10-30T11:03:59.098Z,16.78
2022-10-30T11:06:28.589Z,16.94
2022-10-30T11:09:02.748Z,16.88
2022-10-30T11:11:44.732Z,16.88
2022-10-30T11:14:16.466Z,16.80
2022-10-30T11:16:55.047Z,16.93
2022-10-30T11:19:23.429Z,17.06
2022-10-30T11:21:52.941Z,17.04
2022-10-30T11:24:28.691Z,17.23
2022-10-30T11:26:57.901Z,17.33
2022-10-30T11:29:28.839Z,17.40
2022-10-30T11:32:17.587Z,17.41
2022-10-30T11:34:45.869Z,17.58
2022-10-30T11:38:14.311Z,17.74
2022-10-30T11:40:48.697Z,17.79
2022-10-30T11:47:11.529Z,18.07
2022-10-30T11:49:49.180Z,18.10
2022-10-30T11:52:41.324Z,18.14
2022-10-30T11:55:15.853Z,18.31
2022-10-30T11:58:03.095Z,18.41
2022-10-30T12:00:46.450Z,18.40
2022-10-30T12:06:19.492Z,18.43
2022-10-30T12:09:10.460Z,18.44
2022-10-30T12:11:39.249Z,18.55
2022-10-30T12:14:07.440Z,18.58
2022-10-30T12:16:46.189Z,18.79
2022-10-30T12:23:13.857Z,19.10
2022-10-30T12:25:49.690Z,19.43
2022-10-30T12:28:37.240Z,19.44
2022-10-30T12:31:15.838Z,19.51
2022-10-30T12:41:01.522Z,19.75
2022-10-30T12:43:30.343Z,19.78
2022-10-30T12:46:35.472Z,19.92
2022-10-30T12:50:02.388Z,20.02
2022-10-30T12:52:47.292Z,20.02
2022-10-30T12:55:45.841Z,20.20
2022-10-30T12:58:18.108Z,20.31
2022-10-30T13:01:13.100Z,20.39
2022-10-30T13:06:59.476Z,20.46
2022-10-30T13:09:36.606Z,20.51
2022-10-30T13:12:51.963Z,20.67
2022-10-30T13:15:27.506Z,20.81
2022-10-30T13:18:40.032Z,20.91
2022-10-30T13:22:29.253Z,21.03
2022-10-30T13:25:04.446Z,20.99
2022-10-30T13:28:07.067Z,20.89
2022-10-30T13:31:21.180Z,20.92
2022-10-30T13:34:33.172Z,21.01
2022-10-30T13:41:08.417Z,21.08
2022-10-30T13:50:58.309Z,20.91
2022-10-30T13:56:42.766Z,21.02
2022-10-30T13:59:42.440Z,20.95
2022-10-30T14:02:25.938Z,20.98
2022-10-30T14:05:04.560Z,20.86
2022-10-30T14:39:40.981Z,19.62
2022-10-30T14:49:52.565Z,19.45
2022-10-30T14:53:01.067Z,19.67
2022-10-30T14:58:33.094Z,19.05
2022-10-30T15:01:27.756Z,18.29
2022-10-30T15:04:05.716Z,17.72
2022-10-30T15:06:54.207Z,17.46
2022-10-30T15:09:41.014Z,17.35
2022-10-30T15:12:35.194Z,17.18
2022-10-30T15:15:04.399Z,17.38
2022-10-30T15:17:33.620Z,17.47
2022-10-30T15:20:02.996Z,17.58
2022-10-30T15:22:34.273Z,17.69
2022-10-30T15:25:02.481Z,17.85
2022-10-30T15:27:35.921Z,18.08
2022-10-30T15:30:04.296Z,18.21
2022-10-30T15:32:38.051Z,18.30
2022-10-30T15:35:12.364Z,18.36
2022-10-30T15:40:41.070Z,18.28
2022-10-30T15:43:14.252Z,18.30
2022-10-30T15:45:43.166Z,18.37
2022-10-30T15:48:23.827Z,18.38
2022-10-30T15:50:57.685Z,18.54
2022-10-30T15:53:30.814Z,18.73
2022-10-30T15:56:05.001Z,18.65
2022-10-30T16:02:38.073Z,18.68
2022-10-30T16:05:26.785Z,18.76
2022-10-30T16:07:58.319Z,18.69
2022-10-30T16:10:28.200Z,18.73
2022-10-30T16:13:15.252Z,18.75
2022-10-30T16:15:52.380Z,18.79
2022-10-30T16:18:22.045Z,18.73
2022-10-30T16:20:51.768Z,18.78
2022-10-30T16:23:37.666Z,18.62
2022-10-30T16:26:06.365Z,18.76
2022-10-30T16:28:37.913Z,18.50
2022-10-30T16:31:16.467Z,18.67
2022-10-30T16:33:49.216Z,18.53
2022-10-30T16:36:22.461Z,18.53
2022-10-30T16:42:07.096Z,18.32
2022-10-30T16:47:26.809Z,18.52
2022-10-30T16:50:00.543Z,18.42
2022-10-30T16:52:35.448Z,18.49
2022-10-30T16:55:05.721Z,18.46
2022-10-30T16:57:38.375Z,18.30
2022-10-30T17:00:26.005Z,18.38
2022-10-30T17:03:12.205Z,18.33
2022-10-30T17:05:41.469Z,18.19
2022-10-30T17:11:20.073Z,18.12
2022-10-30T17:14:10.907Z,18.09
2022-10-30T17:16:40.656Z,17.92
2022-10-30T17:19:44.226Z,17.93
2022-10-30T17:22:28.083Z,17.95
2022-10-30T17:24:56.425Z,17.88
2022-10-30T17:28:14.093Z,17.90
2022-10-30T17:30:52.847Z,17.81
2022-10-30T17:33:59.140Z,17.68
2022-10-30T17:36:55.132Z,17.71
2022-10-30T17:39:23.476Z,17.87
2022-10-30T17:42:02.065Z,17.84
2022-10-30T17:45:14.644Z,17.70
2022-10-30T17:47:45.023Z,17.84
2022-10-30T17:50:40.178Z,17.75
2022-10-30T17:53:18.542Z,17.53
2022-10-30T17:55:51.803Z,17.69
2022-10-30T17:59:01.105Z,17.55
2022-10-30T18:02:09.990Z,17.78
2022-10-30T18:04:44.047Z,17.74
2022-10-30T18:07:34.167Z,17.69
2022-10-30T18:10:11.779Z,17.71
2022-10-30T18:12:43.443Z,17.62
2022-10-30T18:15:53.201Z,17.58
2022-10-30T18:21:42.176Z,17.80
2022-10-30T18:24:23.724Z,17.79
2022-10-30T18:29:51.760Z,17.67
2022-10-30T18:35:49.475Z,17.65
2022-10-30T18:38:19.720Z,17.65
2022-10-30T18:41:15.847Z,17.71
2022-10-30T18:44:16.413Z,17.69
2022-10-30T18:50:24.135Z,17.66
2022-10-30T18:54:07.522Z,17.71
2022-10-30T18:56:52.669Z,17.77
2022-10-30T19:06:38.993Z,17.68
2022-10-30T19:09:25.896Z,17.57
2022-10-30T19:12:35.747Z,17.46
2022-10-30T19:15:02.047Z,17.64
2022-10-30T19:21:03.194Z,17.36
2022-10-30T19:23:52.810Z,17.46
2022-10-30T19:26:28.273Z,17.36
2022-10-30T19:29:35.451Z,17.45
2022-10-30T19:32:24.410Z,17.31
2022-10-30T19:35:22.779Z,17.36
2022-10-30T19:42:39.964Z,17.16
2022-10-30T19:51:25.889Z,17.15
2022-10-30T20:04:55.079Z,17.14
2022-10-30T20:07:39.097Z,16.85
2022-10-30T20:10:21.012Z,17.07
2022-10-30T20:17:25.862Z,17.04
2022-10-30T20:27:57.893Z,16.65
2022-10-30T20:34:51.794Z,16.80
2022-10-30T20:38:39.277Z,16.81
2022-10-30T22:46:20.126Z,16.97
